Weather observations for the past three days for
Chandler, Chandler Municipal Airport
Imperial (Metric)
Date Time (cdt) Wind (mph) Vis. (mi.) Weather Sky Cond. Temperature (ºF) Relative Humidity Wind Chill (°F) Heat Index (°F) Pressure Precipitation (in)
Air Dwpt 6 hour altimeter (in) sea level (mb) 1 hr 3 hr 6 hr
Max. Min.
09 23:50 NW 26 G 41 7.00 Rain and Windy SCT050 SCT065 OVC095 65.1 55 70% 29.99 0.0 0.09
09 23:30 Calm 10.00 Light Rain SCT049 SCT065 OVC095 65.3 54 67% 29.92 0.0 0.07
09 22:50 E 12 10.00 Thunderstorm in Vicinity CLR 69.3 50 50% 29.87 0.0
09 22:30 E 9 10.00 Light Rain SCT100 SCT120 68.7 52.3 56% 29.87 0.0
09 22:10 E 8 10.00 Thunderstorm in Vicinity SCT100 SCT120 70 51.6 52% 29.86 0.0
09 21:50 E 5 10.00 Fair CLR 70.9 50.2 48% 29.86 0.0
09 21:30 E 6 10.00 Fair CLR 70 50 49% 29.85 0.0
09 21:10 E 6 10.00 Fair CLR 70.5 50 48% 29.83 0.0
09 20:55 E 8 10.00 Fair CLR 72 49.5 45% 29.8 0.0
09 20:35 E 8 10.00 Fair CLR 71.8 50 46% 29.79 0.0
09 20:15 E 7 10.00 Fair CLR 72.7 50.5 46% 29.79 0.0
09 19:50 E 6 10.00 Fair CLR 74.3 50.4 43% 29.78 0.0
09 19:30 E 6 10.00 Fair CLR 76.1 49.6 39% 78 29.79 0.0
09 19:10 E 9 10.00 Fair CLR 79.2 48.7 34% 79 29.79 0.0
09 18:50 E 12 10.00 Fair CLR 80.8 47.3 84.7 79.7 31% 80 29.78 0.0
09 18:30 E 13 10.00 Fair CLR 81.9 48.4 31% 80 29.78 0.0
09 18:10 SE 10 7.00 Fair CLR 82.6 48.9 31% 81 29.79 0.0
09 17:50 E 10 10.00 Fair CLR 83.3 49.1 30% 81 29.79 0.0
09 17:30 SE 7 10.00 Fair CLR 83.5 47.1 28% 81 29.8 0.0
09 17:10 E 14 10.00 Fair CLR 84.2 46.2 27% 82 29.8 0.0
09 16:50 SE 9 10.00 Fair CLR 83.8 46 27% 82 29.8 0.0
09 16:35 E 8 10.00 Fair CLR 84.4 46 26% 82 29.8 0.0
09 16:15 E 7 10.00 Fair CLR 84.4 44.1 24% 82 29.81 0.0
09 15:50 E 9 10.00 Fair CLR 83.5 45.1 26% 81 29.82 0.0
09 15:30 E 8 10.00 Fair CLR 83.7 46.2 27% 81 29.82 0.0
09 15:10 E 9 10.00 Fair CLR 83.8 47.7 28% 82 29.83 0.0
09 14:50 NE 9 10.00 Fair CLR 84 45.7 26% 82 29.84 0.0
09 14:30 E 7 10.00 Fair CLR 83.1 41 23% 81 29.85 0.0
09 14:10 E 10 10.00 Fair CLR 82.8 44.1 26% 81 29.85 0.0
09 13:50 E 7 10.00 Fair CLR 81.5 47.5 30% 80 29.85 0.0
09 13:10 E 7 10.00 Fair CLR 80.6 49.5 34% 80 29.86 0.0
09 12:50 E 9 10.00 Fair CLR 80.6 54 80.8 51.6 40% 80 29.87 0.0
09 12:30 SE 5 10.00 Fair CLR 77.9 56.1 47% 79 29.87 0.0
09 12:15 SE 8 10.00 Fair CLR 78.1 54.9 45% 79 29.87 0.0
09 11:55 SE 3 10.00 Fair CLR 76.8 55.9 49% 78 29.9 0.0
09 11:30 SE 5 10.00 Fair CLR 76.8 57 51% 79 29.9 0.0
09 11:10 SE 6 10.00 Fair CLR 76.5 61.3 60% 78 29.9 0.0
09 10:50 SE 5 10.00 Fair CLR 74.7 60.3 61% 29.9 0.0
09 10:30 SE 5 10.00 Fair CLR 73.4 62.6 69% 29.89 0.0
09 10:10 E 6 10.00 Fair CLR 71.1 61.3 72% 29.89 0.0
09 09:50 E 3 10.00 Fair CLR 69.1 61.3 76% 29.88 0.0
09 09:30 Calm 10.00 Fair CLR 66.6 60.8 82% 29.88 0.0
09 09:10 Calm 10.00 Fair CLR 63.7 60.3 89% 29.88 0.0
09 08:50 Calm 10.00 Fair CLR 61.5 61.3 99% 29.89 0.0
09 08:30 Calm 10.00 Fair CLR 60.3 60.3 100% 29.88 0.0
09 08:10 Calm 10.00 Partly Cloudy SCT001 58.8 58.8 100% 29.88 0.0
09 07:55 Calm 3.50 Fog/Mist BKN001 57.7 57.7 100% 29.87 0.0
09 07:35 Calm 1.00 Fog/Mist OVC002 55.2 55.2 100% 29.86 0.0
09 07:10 Calm 0.25 Fog OVC002 53.4 53.2 99% 29.85 0.0
09 06:50 Calm 0.25 Fog OVC002 52.3 52.2 57.9 51.4 99% 29.85 0.0
09 06:30 N 6 0.25 Fog OVC002 53.2 53.2 100% 29.84 0.0
09 06:10 N 6 0.25 Fog VV002 52 51.6 99% 29.83 0.0
09 05:50 NW 5 1.00 Fog/Mist VV007 53.4 53.2 99% 29.84 0.0
09 05:30 N 3 2.50 Fog/Mist CLR 53.4 53.2 99% 29.84 0.0
09 05:10 N 3 5.00 Fog/Mist CLR 54 53.8 99% 29.85 0.0
09 04:50 N 5 3.50 Fog/Mist CLR 53.1 52.9 99% 29.85 0.0
09 04:30 N 3 1.25 Fog/Mist VV007 53.2 52.9 99% 29.85 0.0
09 04:10 Calm 5.00 Fog/Mist CLR 54.5 54.1 99% 29.85 0.0
09 03:30 N 5 4.00 Fog/Mist CLR 54.9 54.5 99% 29.85 0.0
09 03:10 N 7 1.75 Fog/Mist VV007 54.3 53.6 97% 29.86 0.0
09 02:50 Calm 10.00 Fair CLR 55.2 54.7 98% 29.86 0.0
09 02:30 Calm 10.00 Fair CLR 56.1 55.4 97% 29.86 0.0
09 02:10 Calm 7.00 Fair CLR 57 56.5 98% 29.85 0.0
09 01:50 Calm 10.00 Fair CLR 56.7 55.9 97% 29.86 0.0
09 01:30 Calm 7.00 Fair CLR 57 56.5 98% 29.87 0.0
09 01:15 Calm 5.00 Fog/Mist CLR 57.7 57.2 98% 29.87 0.0
09 00:55 Calm 10.00 Fair CLR 57.6 56.8 70.9 57.2 97% 29.87 0.0
09 00:30 Calm 10.00 Fair CLR 57.7 56.5 96% 29.87 0.0
09 00:10 Calm 10.00 Fair CLR 58.3 57 96% 29.87 0.0
08 23:50 N 3 10.00 Partly Cloudy SCT042 59.2 57 93% 29.87 0.0
08 23:30 Calm 10.00 Mostly Cloudy SCT044 BKN050 BKN065 59.7 57.9 94% 29.87 0.0
08 23:10 Calm 10.00 Mostly Cloudy SCT048 BKN055 60.3 57.9 92% 29.88 0.0
08 22:50 SE 8 10.00 Mostly Cloudy BKN055 60.6 58.1 91% 29.87 0.0
08 22:30 E 6 10.00 Fair CLR 60.8 58.3 91% 29.86 0.0
08 22:10 E 7 10.00 Fair CLR 60.8 58.5 92% 29.85 0.0
08 21:50 SE 8 10.00 Fair CLR 61 58.5 91% 29.83 0.0
08 21:30 E 8 10.00 Fair CLR 61.9 58.8 90% 29.83 0.0
08 21:10 E 8 10.00 Fair CLR 62.8 59.2 88% 29.82 0.0
08 20:55 E 9 10.00 Fair CLR 63.5 59.5 87% 29.81 0.0
08 20:15 N 6 10.00 Partly Cloudy SCT085 SCT100 66.4 61.9 86% 29.79 0.0
08 19:50 NE 8 10.00 Partly Cloudy SCT085 67.8 62.2 82% 29.78 0.0
08 19:30 NE 13 G 18 10.00 Partly Cloudy SCT085 68.4 63 83% 29.77 0.0
08 19:10 NE 7 10.00 Fair CLR 70.5 64 80% 29.74 0.0
08 18:50 SE 7 10.00 Thunderstorm in Vicinity CLR 70.3 64.6 83.1 68.2 82% 29.73 0.0 0.08 0.09
08 18:30 E 10 10.00 Light Rain SCT038 SCT047 BKN080 68.4 62.4 81% 29.73 0.0 0.08
08 17:50 S 12 10.00 Thunderstorm Rain in Vicinity CLR 77.9 59.4 53% 79 29.74 0.0
08 17:30 S 8 10.00 Thunderstorm SCT060 78.4 59.4 52% 80 29.72 0.0
08 17:10 S 8 10.00 Fair CLR 79 59.4 51% 80 29.72 0.0
08 16:50 S 9 G 17 10.00 Fair CLR 80.1 59.4 49% 81 29.73 0.0
08 16:35 S 15 10.00 Fair CLR 81.9 59.2 46% 82 29.74 0.0
08 16:15 SW 14 G 20 10.00 Fair CLR 82.2 59.4 46% 82 29.75 0.0
08 15:55 SW 9 10.00 Fair CLR 81.5 59.2 47% 82 29.76 0.0
08 15:30 S 14 G 20 10.00 Partly Cloudy SCT049 82.4 60.1 47% 83 29.77 0.0
08 15:10 S 10 10.00 Partly Cloudy SCT049 81.5 59.4 47% 82 29.79 0.0
08 14:50 SW 9 10.00 Fair CLR 81 59.2 48% 81 29.8 0.0
08 14:30 S 12 G 20 10.00 Fair CLR 80.4 58.5 47% 81 29.8 0.0
08 14:10 S 13 G 23 10.00 Fair CLR 79.3 57.6 47% 80 29.81 0.0
08 13:50 S 15 G 21 10.00 Fair CLR 79 57 47% 80 29.82 0.0
08 13:30 S 14 10.00 Fair CLR 78.4 55.9 46% 79 29.82 0.0
08 13:10 SW 13 G 18 10.00 Fair CLR 77.5 55.2 46% 79 29.83 0.0
08 12:30 S 17 G 24 10.00 Fair CLR 76.3 52.7 44% 78 29.85 0.0
08 12:15 S 15 10.00 Fair CLR 75.4 52.3 45% 78 29.86 0.0
08 11:55 S 16 10.00 Fair CLR 75.4 53.1 46% 78 29.87 0.0
08 11:35 S 16 10.00 Fair CLR 74.3 53.2 48% 29.88 0.0
08 11:10 S 17 10.00 Fair CLR 73 52.5 49% 29.89 0.0
08 10:50 SW 16 G 23 10.00 Fair CLR 72.1 52.9 51% 29.9 0.0
08 10:30 S 14 4.00 Fair with Haze CLR 70.9 52 51% 29.91 0.0
08 10:10 S 13 G 21 0.00 Fair CLR 70 52.5 54% 29.92 0.0
08 09:50 S 16 10.00 Fair CLR 68.2 52.3 57% 29.92 0.0
08 09:30 S 15 10.00 Fair CLR 66.7 52.5 60% 29.93 0.0
08 09:10 S 15 10.00 Fair CLR 64.9 52.2 63% 29.93 0.0
08 08:50 S 16 10.00 Fair CLR 62.6 51.3 67% 29.94 0.0
08 08:10 S 10 10.00 Fair CLR 57.7 50.4 77% 29.94 0.0
08 07:55 S 8 10.00 Fair CLR 56.3 50 80% 29.94 0.0
08 07:35 S 8 10.00 Fair CLR 54.5 49.1 82% 29.94 0.0
08 07:10 S 6 10.00 Fair CLR 52.5 48.2 85% 29.93 0.0
08 06:50 S 6 10.00 Fair CLR 51.1 47.3 55.9 50.2 87% 29.93 0.0
08 06:30 S 7 10.00 Fair CLR 50.7 46.9 87% 29.93 0.0
08 06:10 S 9 10.00 Fair CLR 51.6 46.9 84% 29.93 0.0
08 05:50 S 9 10.00 Fair CLR 51.4 46.9 85% 29.92 0.0
08 05:30 S 8 10.00 Fair CLR 51.3 46.8 85% 29.91 0.0
08 05:10 S 7 10.00 Fair CLR 51.6 46.2 82% 29.91 0.0
08 04:50 S 8 10.00 Fair CLR 51.8 46.4 82% 29.91 0.0
08 04:30 S 8 10.00 Fair CLR 51.8 46 81% 29.92 0.0
08 04:10 S 8 10.00 Fair CLR 52.9 46.4 79% 29.91 0.0
08 03:50 S 9 10.00 Fair CLR 52.9 46.4 79% 29.91 0.0
08 03:30 S 9 10.00 Fair CLR 53.6 46.2 76% 29.91 0.0
08 03:10 S 8 10.00 Fair CLR 53.2 46 77% 29.91 0.0
08 02:50 S 7 10.00 Fair CLR 52.2 44.8 76% 29.92 0.0
08 02:30 S 8 10.00 Fair CLR 53.4 45 73% 29.92 0.0
08 02:10 S 7 10.00 Fair CLR 53.4 44.6 72% 29.93 0.0
08 01:50 S 5 10.00 Fair CLR 54.1 44.4 70% 29.94 0.0
08 01:30 S 7 10.00 Fair CLR 53.6 44.6 72% 29.94 0.0
08 01:15 S 7 10.00 Fair CLR 55 44.1 67% 29.95 0.0
08 00:55 S 7 10.00 Fair CLR 55.8 44.1 72 54.3 65% 29.95 0.0
08 00:35 S 8 10.00 Fair CLR 55.9 43.9 64% 29.95 0.0
08 00:10 S 9 10.00 Fair CLR 54.5 43.9 68% 29.95 0.0
07 23:50 S 6 10.00 Fair CLR 54.9 43.7 66% 29.95 0.0
07 23:30 S 7 10.00 Fair CLR 55 43.5 65% 29.95 0.0
07 23:10 S 6 10.00 Fair CLR 56.5 43.7 62% 29.95 0.0
07 22:30 S 7 10.00 Fair CLR 57.2 43 59% 29.96 0.0
07 22:10 S 6 10.00 Fair CLR 58.6 43 56% 29.96 0.0
07 21:50 S 8 10.00 Fair CLR 59.5 42.6 54% 29.95 0.0
07 21:30 S 7 10.00 Fair CLR 60.1 42.3 52% 29.95 0.0
07 21:10 S 7 10.00 Fair CLR 61.7 42.3 49% 29.95 0.0
07 20:55 S 7 10.00 Fair CLR 62.2 42.4 48% 29.95 0.0
07 20:35 S 7 7.00 Fair CLR 63.9 42.6 46% 29.94 0.0
07 20:15 S 8 10.00 Fair CLR 64.8 42.6 45% 29.94 0.0
07 19:50 S 8 10.00 Fair CLR 66.9 43.2 42% 29.94 0.0
07 19:30 S 6 7.00 Fair with Haze CLR 69.4 43 39% 29.93 0.0
07 19:10 S 7 10.00 Fair CLR 71.1 41 34% 29.93 0.0
07 18:50 S 8 10.00 Fair CLR 72.1 40.5 74.1 67.1 32% 29.93 0.0
07 18:30 S 7 10.00 Fair CLR 72.9 40.3 31% 29.94 0.0
07 18:10 W 7 10.00 Fair CLR 73.2 38.5 28% 29.94 0.0
07 17:50 S 6 10.00 Fair CLR 73.4 39.4 29% 29.95 0.0
07 17:30 SW 6 10.00 Fair CLR 73.6 37.9 27% 29.95 0.0
07 17:10 W 3 10.00 Fair CLR 73.2 39.6 30% 29.96 0.0
07 16:50 SW 5 10.00 Fair CLR 72.5 39.6 30% 29.96 0.0
07 16:35 SW 9 10.00 Fair CLR 72.9 40.6 31% 29.96 0.0
07 16:15 W 9 10.00 Fair CLR 73 41.2 32% 29.97 0.0
07 15:55 SW 12 10.00 Fair CLR 72.9 41.2 32% 29.98 0.0
07 15:30 W 10 10.00 Fair CLR 72 40.1 32% 29.99 0.0
07 15:10 SW 9 10.00 Fair CLR 71.4 39.4 31% 30 0.0
07 14:50 W 10 G 17 10.00 Fair CLR 70.7 40.1 33% 30.01 0.0
07 14:30 W 8 10.00 Fair CLR 70 41.4 36% 30.02 0.0
07 14:10 W 10 10.00 Fair CLR 70.5 41.5 35% 30.03 0.0
07 13:50 SW 10 10.00 Fair CLR 69.4 41.4 36% 30.04 0.0
07 13:30 SW 8 10.00 Fair CLR 68.7 41 37% 30.05 0.0
07 12:50 W 12 10.00 Fair CLR 66.9 40.5 67.3 41.5 38% 30.06 0.0
07 12:30 W 7 10.00 Fair CLR 65.7 39.6 38% 30.07 0.0
07 12:15 W 8 10.00 Fair CLR 67.1 41.2 39% 30.09 0.0
07 11:55 SW 6 G 18 10.00 Fair CLR 65.3 39.9 40% 30.1 0.0
07 11:35 SW 10 G 16 10.00 Fair CLR 64.9 39.4 39% 30.11 0.0
07 11:10 S 12 5.00 Fair with Haze CLR 63.9 39.9 42% 30.11 0.0
07 10:50 SW 9 10.00 Fair CLR 63.7 40.5 43% 30.11 0.0
07 10:30 SW 7 10.00 Fair CLR 61.7 40.8 46% 30.12 0.0
07 10:10 S 8 10.00 Fair CLR 61.2 41.7 49% 30.12 0.0
07 09:50 S 8 10.00 Fair CLR 59.5 40.6 50% 30.13 0.0
07 09:30 S 8 10.00 Fair CLR 58.5 40.5 51% 30.14 0.0
07 09:10 S 8 10.00 Fair CLR 56.7 41 56% 30.14 0.0
07 08:50 SW 6 10.00 Fair CLR 54.3 41.2 61% 30.14 0.0
07 08:30 SW 5 10.00 Fair CLR 52.3 43 71% 30.14 0.0
07 08:10 SW 3 10.00 Fair CLR 50 43.3 78% 30.14 0.0
07 07:55 SW 5 10.00 Fair CLR 48 42.1 80% 47 30.14 0.0
07 07:35 Calm 10.00 Fair CLR 46.4 40.5 80% 30.13 0.0
07 07:10 SW 3 10.00 Fair CLR 43.7 40.3 88% 30.12 0.0
07 06:50 W 3 10.00 Partly Cloudy SCT060 41.5 38.1 48 40.5 88% 30.12 0.0
07 06:10 NW 3 10.00 Partly Cloudy SCT065 41.5 37.8 86% 30.11 0.0
07 05:50 N 5 10.00 Partly Cloudy SCT065 41 37.4 87% 38 30.11 0.0
07 05:30 NW 7 10.00 Fair CLR 40.8 37 86% 37 30.11 0.0
07 05:10 NW 3 10.00 Fair CLR 42.3 38.1 85% 30.1 0.0
07 04:50 N 3 10.00 Fair CLR 42.4 38.5 86% 30.1 0.0
07 04:30 NW 5 10.00 Fair CLR 42.6 38.7 86% 40 30.11 0.0
07 04:10 N 3 10.00 Fair CLR 43.7 38.8 83% 30.09 0.0
07 03:50 N 5 10.00 Fair CLR 43 37.8 82% 41 30.09 0.0
07 02:50 NW 3 10.00 Fair CLR 44.6 39 81% 30.11 0.0
07 02:30 NW 3 10.00 Fair CLR 45.3 39 79% 30.1 0.0
07 01:50 NE 5 10.00 Fair CLR 45.7 39 78% 44 30.09 0.0
07 01:30 N 5 10.00 Fair CLR 46.6 39.6 77% 45 30.12 0.0
07 01:10 N 8 10.00 Fair CLR 46.2 38.7 75% 43 30.12 0.0
07 00:55 N 5 10.00 Fair CLR 47.7 39.2 62.8 47.3 73% 46 30.12 0.0
07 00:35 N 6 10.00 Fair CLR 48.2 39.2 71% 46 30.12 0.0
07 00:10 N 5 10.00 Fair CLR 48.4 40.1 73% 47 30.11 0.0
Date Time (cdt) Wind (mph) Vis. (mi.) Weather Sky Cond. Air Dwpt Max. Min. Relative Humidity Wind Chill (°F) Heat Index (°F) altimeter (in) sea level (mb) 1 hr 3 hr 6 hr
6 hour
Temperature (ºF) Pressure Precipitation (in)